Time;durP1;ratioP1;P1;durP2;ratioP2;P2;SDS_P1;SDS_P2;PMS_P1;PMS_P2;Temp;Humidity;BMP_temperature;BMP_pressure;BME280_temperature;BME280_humidity;BME280_pressure;Samples;Min_cycle;Max_cycle;Signal;HPM_P1;HPM_P2
2021/04/11 00:01:09;;;;;;;6.77;5.60;;;;;;;;;;5073236;28;20180;-61
2021/04/11 00:03:35;;;;;;;6.80;6.10;;;;;;;;;;5091168;28;20179;-61
2021/04/11 00:06:01;;;;;;;6.73;5.90;;;;;;;;;;5091951;28;20512;-61
2021/04/11 00:08:29;;;;;;;8.53;6.60;;;;;;;;;;5087617;28;20180;-61
2021/04/11 00:10:57;;;;;;;6.27;5.67;;;;;;;;;;5073148;28;20184;-61
2021/04/11 00:13:24;;;;;;;7.07;5.90;;;;;;;;;;5075389;28;20215;-61
2021/04/11 00:15:51;;;;;;;8.27;6.57;;;;;;;;;;5073044;28;20186;-61
2021/04/11 00:18:17;;;;;;;8.37;5.97;;;;;;;;;;5091126;28;20186;-62
2021/04/11 00:20:43;;;;;;;6.27;5.67;;;;;;;;;;5086020;28;20223;-61
2021/04/11 00:23:09;;;;;;;7.90;5.33;;;;;;;;;;5071533;28;20517;-61
2021/04/11 00:25:36;;;;;;;7.60;6.50;;;;;;;;;;5090261;28;20179;-61
2021/04/11 00:28:03;;;;;;;7.07;6.33;;;;;;;;;;5089981;28;20175;-62
2021/04/11 00:30:29;;;;;;;7.30;5.70;;;;;;;;;;5090479;28;20325;-61
2021/04/11 00:32:57;;;;;;;8.40;6.37;;;;;;;;;;5091448;28;20176;-61
2021/04/11 00:35:23;;;;;;;6.90;5.97;;;;;;;;;;5072634;28;20180;-61
2021/04/11 00:37:49;;;;;;;7.40;6.17;;;;;;;;;;5088165;28;20183;-62
2021/04/11 00:40:20;;;;;;;9.70;6.50;;;;;;;;;;5090449;28;20601;-61
2021/04/11 00:42:47;;;;;;;7.37;5.70;;;;;;;;;;5072764;28;20266;-62
2021/04/11 00:45:19;;;;;;;6.57;5.87;;;;;;;;;;5071864;28;20267;-61
2021/04/11 00:47:46;;;;;;;8.83;6.40;;;;;;;;;;5091435;28;20164;-64
2021/04/11 00:50:14;;;;;;;5.93;5.33;;;;;;;;;;5089823;28;20552;-61
2021/04/11 00:52:41;;;;;;;6.67;6.00;;;;;;;;;;5091298;28;20176;-61
2021/04/11 00:55:08;;;;;;;8.07;6.33;;;;;;;;;;5090169;28;20207;-62
2021/04/11 00:57:34;;;;;;;6.33;5.57;;;;;;;;;;5085108;28;20227;-62
2021/04/11 01:00:00;;;;;;;6.43;5.67;;;;;;;;;;5084240;28;20661;-63
2021/04/11 01:02:26;;;;;;;6.67;5.97;;;;;;;;;;5069091;28;20186;-62
2021/04/11 01:04:53;;;;;;;6.43;5.73;;;;;;;;;;5089171;28;20485;-62
2021/04/11 01:07:20;;;;;;;6.60;5.90;;;;;;;;;;5089842;28;20850;-62
2021/04/11 01:09:47;;;;;;;7.03;5.87;;;;;;;;;;5090132;28;20187;-64
2021/04/11 01:12:17;;;;;;;7.53;5.43;;;;;;;;;;5089222;28;20210;-61
2021/04/11 01:14:43;;;;;;;6.27;5.60;;;;;;;;;;5064801;28;20563;-62
2021/04/11 01:17:11;;;;;;;7.67;6.10;;;;;;;;;;5072454;28;20180;-61
2021/04/11 01:19:39;;;;;;;6.77;6.07;;;;;;;;;;5068513;28;20176;-62
2021/04/11 01:22:05;;;;;;;6.37;5.80;;;;;;;;;;5052334;28;20226;-61
2021/04/11 01:24:50;;;;;;;7.00;6.30;;;;;;;;;;5080358;28;20184;-61
2021/04/11 01:27:18;;;;;;;8.17;5.90;;;;;;;;;;5071246;28;20241;-62
2021/04/11 01:29:44;;;;;;;7.70;5.63;;;;;;;;;;5096723;28;20369;-62
2021/04/11 01:32:11;;;;;;;5.53;5.03;;;;;;;;;;5062142;28;20196;-62
2021/04/11 01:34:38;;;;;;;5.93;5.33;;;;;;;;;;5091677;28;20207;-61
2021/04/11 01:37:04;;;;;;;7.00;5.83;;;;;;;;;;5089819;28;20168;-62
2021/04/11 01:39:35;;;;;;;6.40;5.80;;;;;;;;;;5088835;28;20185;-62
2021/04/11 01:42:01;;;;;;;6.13;5.53;;;;;;;;;;5055576;28;20183;-62
2021/04/11 01:44:28;;;;;;;6.17;5.13;;;;;;;;;;5076035;28;20267;-62
2021/04/11 01:46:55;;;;;;;6.40;5.80;;;;;;;;;;5075087;28;20211;-62
2021/04/11 01:49:22;;;;;;;5.70;5.10;;;;;;;;;;5094004;28;20287;-62
2021/04/11 01:51:50;;;;;;;5.53;5.03;;;;;;;;;;5093716;28;20199;-62
2021/04/11 01:54:19;;;;;;;7.87;6.73;;;;;;;;;;5071651;28;20626;-62
2021/04/11 01:56:45;;;;;;;7.53;6.73;;;;;;;;;;5072934;28;20651;-62
2021/04/11 01:59:12;;;;;;;8.07;7.37;;;;;;;;;;5079163;28;20246;-62
2021/04/11 02:01:38;;;;;;;8.77;7.97;;;;;;;;;;5064125;28;20487;-61
2021/04/11 02:04:05;;;;;;;9.77;8.87;;;;;;;;;;5086585;28;20242;-62
2021/04/11 02:06:34;;;;;;;9.67;8.33;;;;;;;;;;5114042;28;20190;-62
2021/04/11 02:09:01;;;;;;;8.67;7.87;;;;;;;;;;5098912;28;20179;-61
2021/04/11 02:11:27;;;;;;;7.50;6.77;;;;;;;;;;5084515;28;20177;-62
2021/04/11 02:13:54;;;;;;;7.50;6.70;;;;;;;;;;5078934;28;20657;-61
2021/04/11 02:16:26;;;;;;;7.70;6.90;;;;;;;;;;5094025;28;20179;-62
2021/04/11 02:18:58;;;;;;;7.00;6.40;;;;;;;;;;5074744;28;20582;-62
2021/04/11 02:21:24;;;;;;;7.13;6.43;;;;;;;;;;5082617;28;20251;-62
2021/04/11 02:23:51;;;;;;;7.93;6.73;;;;;;;;;;5085990;28;20176;-63
2021/04/11 02:26:17;;;;;;;6.00;5.50;;;;;;;;;;5093633;28;20175;-62
2021/04/11 02:28:43;;;;;;;6.20;5.60;;;;;;;;;;5092229;28;20214;-62
2021/04/11 02:31:19;;;;;;;6.37;5.77;;;;;;;;;;5075838;28;20620;-62
2021/04/11 02:33:51;;;;;;;5.77;5.27;;;;;;;;;;5086233;28;20680;-62
2021/04/11 02:36:17;;;;;;;6.33;5.70;;;;;;;;;;5093163;28;20190;-62
2021/04/11 02:38:44;;;;;;;5.87;5.27;;;;;;;;;;5073794;28;20208;-62
2021/04/11 02:41:12;;;;;;;6.47;5.87;;;;;;;;;;5093011;28;20584;-62
2021/04/11 02:43:38;;;;;;;5.17;4.67;;;;;;;;;;5089713;28;20693;-61
2021/04/11 02:46:04;;;;;;;5.43;4.93;;;;;;;;;;5074875;28;20173;-61
2021/04/11 02:48:30;;;;;;;5.07;4.57;;;;;;;;;;5093329;28;20184;-60
2021/04/11 02:50:57;;;;;;;4.80;4.40;;;;;;;;;;5074759;28;20203;-61
2021/04/11 02:53:24;;;;;;;4.70;4.30;;;;;;;;;;5092664;28;20249;-61
2021/04/11 02:55:50;;;;;;;4.20;3.80;;;;;;;;;;5072882;28;20184;-60
2021/04/11 02:58:17;;;;;;;3.67;3.33;;;;;;;;;;5089043;28;20203;-62
2021/04/11 03:00:46;;;;;;;3.80;3.50;;;;;;;;;;5078729;28;20511;-60
2021/04/11 03:03:12;;;;;;;3.93;3.57;;;;;;;;;;5088100;28;20176;-61
2021/04/11 03:05:38;;;;;;;3.83;3.53;;;;;;;;;;5092037;28;20176;-61
2021/04/11 03:08:06;;;;;;;4.27;3.87;;;;;;;;;;5073610;28;20249;-60
2021/04/11 03:10:41;;;;;;;3.47;3.17;;;;;;;;;;5089187;28;20243;-61
2021/04/11 03:13:07;;;;;;;4.00;3.60;;;;;;;;;;5076528;28;20245;-61
2021/04/11 03:15:33;;;;;;;3.77;3.47;;;;;;;;;;5088794;28;20198;-61
2021/04/11 03:17:59;;;;;;;3.70;3.40;;;;;;;;;;5090367;28;20213;-61
2021/04/11 03:20:27;;;;;;;3.40;3.03;;;;;;;;;;5087358;28;20183;-61
2021/04/11 03:22:57;;;;;;;3.30;3.00;;;;;;;;;;5092697;28;20702;-61
2021/04/11 03:25:24;;;;;;;3.63;3.33;;;;;;;;;;5073593;28;20251;-61
2021/04/11 03:27:54;;;;;;;3.17;2.87;;;;;;;;;;5073397;28;20184;-61
2021/04/11 03:30:23;;;;;;;4.10;3.70;;;;;;;;;;5091206;28;20223;-61
2021/04/11 03:32:51;;;;;;;3.10;2.87;;;;;;;;;;5090967;28;20425;-61
2021/04/11 03:35:19;;;;;;;3.17;2.87;;;;;;;;;;5081554;28;20618;-62
2021/04/11 03:37:46;;;;;;;2.93;2.63;;;;;;;;;;5082243;28;20538;-61
2021/04/11 03:40:14;;;;;;;3.27;2.97;;;;;;;;;;5058230;28;20509;-63
2021/04/11 03:42:43;;;;;;;2.73;2.53;;;;;;;;;;5071879;28;20231;-61
2021/04/11 03:45:10;;;;;;;2.97;2.77;;;;;;;;;;5078203;28;20185;-61
2021/04/11 03:47:39;;;;;;;2.57;2.37;;;;;;;;;;5072409;28;20168;-61
2021/04/11 03:50:05;;;;;;;2.13;2.03;;;;;;;;;;5069238;28;20199;-61
2021/04/11 03:52:34;;;;;;;2.63;2.43;;;;;;;;;;5108663;28;20213;-61
2021/04/11 03:55:02;;;;;;;2.43;2.23;;;;;;;;;;5097359;28;20208;-61
2021/04/11 03:57:50;;;;;;;2.23;2.03;;;;;;;;;;5091561;28;20233;-61
2021/04/11 04:00:22;;;;;;;2.20;2.10;;;;;;;;;;5091598;28;20195;-64
2021/04/11 04:02:48;;;;;;;2.50;2.30;;;;;;;;;;5091849;28;20935;-61
2021/04/11 04:05:16;;;;;;;2.10;1.90;;;;;;;;;;5091026;28;20240;-61
2021/04/11 04:07:47;;;;;;;2.10;2.00;;;;;;;;;;5092098;28;20577;-62
2021/04/11 04:10:14;;;;;;;2.40;2.20;;;;;;;;;;5090873;28;20187;-61
2021/04/11 04:12:55;;;;;;;2.33;2.13;;;;;;;;;;5069743;28;20227;-61
2021/04/11 04:15:40;;;;;;;1.57;1.47;;;;;;;;;;5089023;28;20207;-61
2021/04/11 04:18:12;;;;;;;2.00;1.90;;;;;;;;;;5091496;28;20179;-61
2021/04/11 04:20:57;;;;;;;1.70;1.60;;;;;;;;;;5090900;28;20176;-62
2021/04/11 04:23:32;;;;;;;2.00;1.80;;;;;;;;;;5073313;28;20180;-62
2021/04/11 04:26:04;;;;;;;1.90;1.80;;;;;;;;;;5090005;28;20175;-64
2021/04/11 04:28:45;;;;;;;1.60;1.50;;;;;;;;;;5089175;28;20180;-61
2021/04/11 04:31:14;;;;;;;1.70;1.60;;;;;;;;;;5063890;28;20207;-61
2021/04/11 04:33:54;;;;;;;1.60;1.50;;;;;;;;;;5069741;28;20199;-61
2021/04/11 04:36:39;;;;;;;1.80;1.70;;;;;;;;;;5075455;28;20187;-61
2021/04/11 04:39:05;;;;;;;1.73;1.63;;;;;;;;;;5091199;28;20175;-61
2021/04/11 04:41:49;;;;;;;1.80;1.70;;;;;;;;;;5090833;28;20181;-62
2021/04/11 04:44:15;;;;;;;1.70;1.60;;;;;;;;;;5089537;28;20183;-61
2021/04/11 04:47:01;;;;;;;2.10;1.90;;;;;;;;;;5091258;28;20179;-61
2021/04/11 04:49:31;;;;;;;1.80;1.70;;;;;;;;;;5090597;28;20588;-61
2021/04/11 04:52:02;;;;;;;2.20;1.90;;;;;;;;;;5090982;28;20532;-61
2021/04/11 04:54:34;;;;;;;1.90;1.80;;;;;;;;;;5090434;28;20195;-62
2021/04/11 04:57:09;;;;;;;2.10;1.90;;;;;;;;;;5090155;28;20171;-62
2021/04/11 04:59:42;;;;;;;1.90;1.70;;;;;;;;;;5091009;28;20179;-62
2021/04/11 05:02:12;;;;;;;2.10;2.00;;;;;;;;;;5061631;28;20175;-64
2021/04/11 05:04:41;;;;;;;2.07;1.87;;;;;;;;;;5089381;28;20179;-63
2021/04/11 05:07:12;;;;;;;2.40;2.20;;;;;;;;;;5090665;28;20197;-61
2021/04/11 05:09:41;;;;;;;2.37;2.17;;;;;;;;;;5090629;28;20207;-64
2021/04/11 05:12:20;;;;;;;2.40;2.20;;;;;;;;;;5072086;28;20187;-61
2021/04/11 05:14:56;;;;;;;2.73;2.50;;;;;;;;;;5081071;28;20257;-64
2021/04/11 05:17:25;;;;;;;3.07;2.60;;;;;;;;;;5090701;28;20168;-61
2021/04/11 05:19:54;;;;;;;2.77;2.57;;;;;;;;;;5090559;28;20187;-62
2021/04/11 05:22:25;;;;;;;3.17;2.87;;;;;;;;;;5090591;28;20179;-62
2021/04/11 05:25:10;;;;;;;2.87;2.67;;;;;;;;;;5090228;28;20187;-62
2021/04/11 05:27:42;;;;;;;3.10;2.80;;;;;;;;;;5090258;28;20179;-62
2021/04/11 05:30:11;;;;;;;3.73;3.43;;;;;;;;;;5090199;28;20223;-63
2021/04/11 05:32:38;;;;;;;3.53;3.23;;;;;;;;;;5090897;28;20182;-62
2021/04/11 05:35:04;;;;;;;3.10;2.90;;;;;;;;;;5089940;28;20203;-62
2021/04/11 05:37:39;;;;;;;3.83;3.43;;;;;;;;;;5064104;28;20187;-62
2021/04/11 05:40:08;;;;;;;3.10;2.90;;;;;;;;;;5089657;28;20185;-61
2021/04/11 05:42:46;;;;;;;4.30;3.90;;;;;;;;;;5090143;28;20183;-62
2021/04/11 05:45:18;;;;;;;4.20;3.80;;;;;;;;;;5082396;28;20169;-62
2021/04/11 05:47:58;;;;;;;3.83;3.53;;;;;;;;;;5086244;28;20184;-62
2021/04/11 05:50:26;;;;;;;5.03;4.53;;;;;;;;;;5080710;28;20208;-62
2021/04/11 05:52:52;;;;;;;4.27;3.87;;;;;;;;;;5088780;28;20176;-61
2021/04/11 05:55:19;;;;;;;4.43;4.03;;;;;;;;;;5085750;28;20246;-62
2021/04/11 05:57:51;;;;;;;4.20;3.80;;;;;;;;;;5087744;28;20179;-61
2021/04/11 06:00:21;;;;;;;4.80;4.40;;;;;;;;;;5090007;28;20172;-62
2021/04/11 06:02:52;;;;;;;4.57;4.17;;;;;;;;;;5090844;28;20183;-61
2021/04/11 06:05:39;;;;;;;5.10;4.47;;;;;;;;;;5091037;28;20180;-61
2021/04/11 06:08:17;;;;;;;4.70;4.30;;;;;;;;;;5081571;28;20219;-62
2021/04/11 06:11:15;;;;;;;4.87;4.10;;;;;;;;;;5071843;28;20520;-61
2021/04/11 06:14:01;;;;;;;5.17;4.03;;;;;;;;;;5051005;28;20235;-62
2021/04/11 06:16:28;;;;;;;4.47;3.73;;;;;;;;;;5092914;28;20255;-61
2021/04/11 06:18:55;;;;;;;4.67;4.20;;;;;;;;;;5083774;28;20179;-62
2021/04/11 06:21:24;;;;;;;4.07;3.67;;;;;;;;;;5093010;28;20179;-61
2021/04/11 06:23:54;;;;;;;4.80;4.30;;;;;;;;;;5093584;28;20172;-62
2021/04/11 06:26:35;;;;;;;4.63;4.23;;;;;;;;;;5092393;28;20234;-61
2021/04/11 06:29:10;;;;;;;6.67;4.67;;;;;;;;;;5092926;28;20219;-62
2021/04/11 06:31:39;;;;;;;5.97;4.60;;;;;;;;;;5086548;28;20171;-62
2021/04/11 06:34:10;;;;;;;4.67;4.20;;;;;;;;;;5093201;28;20569;-62
2021/04/11 06:36:41;;;;;;;5.13;4.03;;;;;;;;;;5075155;28;20199;-61
2021/04/11 06:39:15;;;;;;;4.10;3.70;;;;;;;;;;5075497;28;20180;-62
2021/04/11 06:41:47;;;;;;;3.80;3.50;;;;;;;;;;5092362;28;20190;-62
2021/04/11 06:44:13;;;;;;;4.90;3.57;;;;;;;;;;5090621;28;20537;-62
2021/04/11 06:46:47;;;;;;;4.37;3.97;;;;;;;;;;5062777;28;20188;-62
2021/04/11 06:49:19;;;;;;;3.63;3.13;;;;;;;;;;5064858;28;20196;-62
2021/04/11 06:51:45;;;;;;;4.33;3.80;;;;;;;;;;5082306;28;20184;-62
2021/04/11 06:54:14;;;;;;;3.73;3.43;;;;;;;;;;5084528;28;20199;-62
2021/04/11 06:56:50;;;;;;;3.73;3.43;;;;;;;;;;5068829;28;20567;-62
2021/04/11 06:59:27;;;;;;;3.90;3.17;;;;;;;;;;5071237;28;20175;-62
2021/04/11 07:02:12;;;;;;;3.70;3.37;;;;;;;;;;5077063;28;20171;-62
2021/04/11 07:05:16;;;;;;;3.87;3.23;;;;;;;;;;5079264;28;20192;-62
2021/04/11 07:08:11;;;;;;;3.57;3.10;;;;;;;;;;4992196;28;20246;-61
2021/04/11 07:10:56;;;;;;;3.73;3.20;;;;;;;;;;4949485;28;20678;-61
2021/04/11 07:13:41;;;;;;;3.57;3.23;;;;;;;;;;5052417;28;20202;-62
2021/04/11 07:16:07;;;;;;;3.60;3.30;;;;;;;;;;5094161;28;20168;-61
2021/04/11 07:18:57;;;;;;;3.13;2.83;;;;;;;;;;5074119;28;20245;-62
2021/04/11 07:21:34;;;;;;;3.60;3.10;;;;;;;;;;5073463;28;20503;-61
2021/04/11 07:24:06;;;;;;;3.23;3.03;;;;;;;;;;5077835;28;20179;-62
2021/04/11 07:26:47;;;;;;;4.43;3.27;;;;;;;;;;5071778;28;20545;-61
2021/04/11 07:29:16;;;;;;;2.90;2.70;;;;;;;;;;5079377;28;20203;-61
2021/04/11 07:31:42;;;;;;;3.57;3.27;;;;;;;;;;5087792;28;20180;-61
2021/04/11 07:34:24;;;;;;;2.63;2.43;;;;;;;;;;5065795;28;20295;-61
2021/04/11 07:37:09;;;;;;;3.73;3.20;;;;;;;;;;5085708;28;20609;-63
2021/04/11 07:39:46;;;;;;;3.83;3.20;;;;;;;;;;5091568;28;20638;-63
2021/04/11 07:42:44;;;;;;;4.10;3.30;;;;;;;;;;5095665;28;20262;-62
2021/04/11 07:45:16;;;;;;;6.67;4.90;;;;;;;;;;5035509;28;20196;-62
2021/04/11 07:47:55;;;;;;;6.77;5.57;;;;;;;;;;5072814;28;20242;-62
2021/04/11 07:50:33;;;;;;;11.53;5.60;;;;;;;;;;5079636;28;20203;-62
2021/04/11 07:53:18;;;;;;;9.30;6.63;;;;;;;;;;5087151;28;20178;-62
2021/04/11 07:55:52;;;;;;;7.07;5.33;;;;;;;;;;5078478;28;20168;-61
2021/04/11 07:58:36;;;;;;;7.77;5.30;;;;;;;;;;5091248;28;20172;-64
2021/04/11 08:01:07;;;;;;;6.60;5.00;;;;;;;;;;5062555;28;20177;-62
2021/04/11 08:03:33;;;;;;;8.07;6.23;;;;;;;;;;5064656;28;20168;-62
2021/04/11 08:06:35;;;;;;;7.13;5.77;;;;;;;;;;5083617;28;20209;-62
2021/04/11 08:09:18;;;;;;;6.67;4.87;;;;;;;;;;5022014;28;20571;-63
2021/04/11 08:12:02;;;;;;;4.63;4.20;;;;;;;;;;5065748;28;20188;-61
2021/04/11 08:14:37;;;;;;;6.67;5.53;;;;;;;;;;5089882;28;20208;-61
2021/04/11 08:17:22;;;;;;;5.80;5.07;;;;;;;;;;5089674;28;20179;-61
2021/04/11 08:19:53;;;;;;;4.97;4.47;;;;;;;;;;5090331;28;20235;-61
2021/04/11 08:22:51;;;;;;;6.53;5.87;;;;;;;;;;5071576;28;20168;-61
2021/04/11 08:25:29;;;;;;;5.93;5.33;;;;;;;;;;5023657;28;20271;-61
2021/04/11 08:28:01;;;;;;;5.70;5.10;;;;;;;;;;5071673;28;20250;-61
2021/04/11 08:30:53;;;;;;;6.27;4.60;;;;;;;;;;5075546;28;20238;-62
2021/04/11 08:33:38;;;;;;;4.57;4.17;;;;;;;;;;5076913;28;20271;-61
2021/04/11 08:36:24;;;;;;;5.60;4.77;;;;;;;;;;5087138;28;20179;-61
2021/04/11 08:39:08;;;;;;;5.43;4.37;;;;;;;;;;5084430;28;20172;-64
2021/04/11 08:41:49;;;;;;;7.03;4.63;;;;;;;;;;5084070;28;20179;-60
2021/04/11 08:44:34;;;;;;;4.97;4.40;;;;;;;;;;5083993;28;20183;-61
2021/04/11 08:47:09;;;;;;;4.53;3.43;;;;;;;;;;5071805;28;20270;-61
2021/04/11 08:49:44;;;;;;;3.23;2.43;;;;;;;;;;5088575;28;20207;-62
2021/04/11 08:52:18;;;;;;;4.40;3.20;;;;;;;;;;5084709;28;20175;-62
2021/04/11 08:54:49;;;;;;;5.47;2.97;;;;;;;;;;5071841;28;20196;-61
2021/04/11 08:57:40;;;;;;;4.00;2.33;;;;;;;;;;5084402;28;20198;-62
2021/04/11 09:00:28;;;;;;;3.77;2.73;;;;;;;;;;5060358;28;20187;-62
2021/04/11 09:03:13;;;;;;;2.70;2.43;;;;;;;;;;5077301;28;20191;-61
2021/04/11 09:05:53;;;;;;;3.37;2.47;;;;;;;;;;5085220;28;20259;-61
2021/04/11 09:08:25;;;;;;;3.13;2.27;;;;;;;;;;5084600;28;20193;-62
2021/04/11 09:10:56;;;;;;;2.77;2.53;;;;;;;;;;5085524;28;20670;-61
2021/04/11 09:13:40;;;;;;;3.10;2.10;;;;;;;;;;5071155;28;20680;-62
2021/04/11 09:16:11;;;;;;;3.63;2.30;;;;;;;;;;5063452;28;20664;-62
2021/04/11 09:19:00;;;;;;;2.50;2.30;;;;;;;;;;5055390;28;20176;-64
2021/04/11 09:21:34;;;;;;;2.73;2.20;;;;;;;;;;5041930;28;20241;-61
2021/04/11 09:24:12;;;;;;;2.67;2.30;;;;;;;;;;5089410;28;20217;-61
2021/04/11 09:26:41;;;;;;;2.13;1.73;;;;;;;;;;5068927;28;20424;-62
2021/04/11 09:29:26;;;;;;;4.03;2.17;;;;;;;;;;5073893;28;20248;-61
2021/04/11 09:32:02;;;;;;;2.20;2.00;;;;;;;;;;5069236;28;20222;-61
2021/04/11 09:34:43;;;;;;;2.80;2.53;;;;;;;;;;5078606;28;20195;-61
2021/04/11 09:37:15;;;;;;;2.60;2.00;;;;;;;;;;5087680;28;20211;-61
2021/04/11 09:39:47;;;;;;;2.77;2.37;;;;;;;;;;5086648;28;20176;-61
2021/04/11 09:42:17;;;;;;;2.63;2.17;;;;;;;;;;5078146;28;20200;-61
2021/04/11 09:44:52;;;;;;;2.57;2.30;;;;;;;;;;5087497;28;20221;-61
2021/04/11 09:47:37;;;;;;;2.50;2.30;;;;;;;;;;5051612;28;20180;-64
2021/04/11 09:50:15;;;;;;;2.60;2.40;;;;;;;;;;5060179;28;20215;-61
2021/04/11 09:52:42;;;;;;;3.70;2.50;;;;;;;;;;5079625;28;20248;-61
2021/04/11 09:55:08;;;;;;;3.30;2.23;;;;;;;;;;5069607;28;20222;-63
2021/04/11 09:57:50;;;;;;;4.17;2.73;;;;;;;;;;5066867;28;20179;-60
2021/04/11 10:00:19;;;;;;;2.40;2.20;;;;;;;;;;5059874;28;20180;-60
2021/04/11 10:02:48;;;;;;;4.37;2.47;;;;;;;;;;5064129;28;20176;-60
2021/04/11 10:05:33;;;;;;;3.30;3.00;;;;;;;;;;5093474;28;20180;-61
2021/04/11 10:08:09;;;;;;;2.90;2.70;;;;;;;;;;5076965;28;20180;-61
2021/04/11 10:10:54;;;;;;;3.10;2.80;;;;;;;;;;5092449;28;20175;-61
2021/04/11 10:13:30;;;;;;;3.30;2.70;;;;;;;;;;5080886;28;20626;-61
2021/04/11 10:16:08;;;;;;;3.30;3.00;;;;;;;;;;5088130;28;20175;-61
2021/04/11 10:18:52;;;;;;;4.33;3.20;;;;;;;;;;5086448;28;20183;-62
2021/04/11 10:21:25;;;;;;;3.37;3.00;;;;;;;;;;5091989;28;20180;-64
2021/04/11 10:24:07;;;;;;;3.57;3.20;;;;;;;;;;5070028;28;20210;-61
2021/04/11 10:26:34;;;;;;;3.50;3.07;;;;;;;;;;5072158;28;20202;-63
2021/04/11 10:29:05;;;;;;;3.63;3.33;;;;;;;;;;5090354;28;20564;-62
2021/04/11 10:31:38;;;;;;;3.07;2.87;;;;;;;;;;5088373;28;20526;-61
2021/04/11 10:34:29;;;;;;;3.00;2.70;;;;;;;;;;5085997;28;20273;-61
2021/04/11 10:37:06;;;;;;;3.10;2.87;;;;;;;;;;5072133;28;20302;-61
2021/04/11 10:39:51;;;;;;;2.67;2.47;;;;;;;;;;5082884;28;20176;-61
2021/04/11 10:42:35;;;;;;;4.43;3.13;;;;;;;;;;5085711;28;20180;-61
2021/04/11 10:45:08;;;;;;;4.10;2.63;;;;;;;;;;5086689;28;20665;-61
2021/04/11 10:47:37;;;;;;;2.43;2.23;;;;;;;;;;5073680;28;20164;-61
2021/04/11 10:50:13;;;;;;;2.70;2.50;;;;;;;;;;5070871;28;20204;-62
2021/04/11 10:52:45;;;;;;;3.20;2.60;;;;;;;;;;5069175;28;20183;-61
2021/04/11 10:55:11;;;;;;;3.73;3.17;;;;;;;;;;5083629;28;20196;-62
2021/04/11 10:57:37;;;;;;;3.47;2.50;;;;;;;;;;5074435;28;20234;-61
2021/04/11 11:00:03;;;;;;;3.03;2.67;;;;;;;;;;5083036;28;20527;-61
2021/04/11 11:02:29;;;;;;;3.67;2.97;;;;;;;;;;5084849;28;20630;-62
2021/04/11 11:05:13;;;;;;;3.37;2.80;;;;;;;;;;5073387;28;20183;-62
2021/04/11 11:07:46;;;;;;;2.50;2.30;;;;;;;;;;5082587;28;20512;-61
2021/04/11 11:10:18;;;;;;;3.37;2.80;;;;;;;;;;5068892;28;20749;-62
2021/04/11 11:12:56;;;;;;;3.60;3.00;;;;;;;;;;5091995;28;20698;-62
2021/04/11 11:15:42;;;;;;;4.47;3.00;;;;;;;;;;5066533;28;20211;-62
2021/04/11 11:18:15;;;;;;;3.57;3.27;;;;;;;;;;5021098;28;20180;-62
2021/04/11 11:20:48;;;;;;;3.53;2.60;;;;;;;;;;5069517;28;20271;-61
2021/04/11 11:23:35;;;;;;;4.17;2.70;;;;;;;;;;5078354;28;20195;-64
2021/04/11 11:26:19;;;;;;;3.27;2.40;;;;;;;;;;5071132;28;20157;-61
2021/04/11 11:29:01;;;;;;;5.73;2.90;;;;;;;;;;5056540;28;20662;-61
2021/04/11 11:31:42;;;;;;;3.23;2.60;;;;;;;;;;5073308;28;20175;-61
2021/04/11 11:34:21;;;;;;;3.73;2.50;;;;;;;;;;5091073;28;20596;-62
2021/04/11 11:37:06;;;;;;;4.60;2.80;;;;;;;;;;5090948;28;20218;-61
2021/04/11 11:39:46;;;;;;;3.20;2.40;;;;;;;;;;5080684;28;20629;-61
2021/04/11 11:42:24;;;;;;;2.80;2.13;;;;;;;;;;5071039;28;20611;-61
2021/04/11 11:44:50;;;;;;;2.97;2.40;;;;;;;;;;5086596;28;20172;-61
2021/04/11 11:47:24;;;;;;;2.60;2.40;;;;;;;;;;5071157;28;20191;-62
2021/04/11 11:49:50;;;;;;;3.10;2.40;;;;;;;;;;5073744;28;20254;-61
2021/04/11 11:52:22;;;;;;;2.97;2.17;;;;;;;;;;5070779;28;20177;-61
2021/04/11 11:54:55;;;;;;;2.33;2.10;;;;;;;;;;5070436;28;20203;-62
2021/04/11 11:57:40;;;;;;;3.50;2.60;;;;;;;;;;5090877;28;20152;-61
2021/04/11 12:00:06;;;;;;;2.33;2.07;;;;;;;;;;5090476;28;20578;-62
2021/04/11 12:02:39;;;;;;;2.60;2.20;;;;;;;;;;5091248;28;20525;-61
2021/04/11 12:05:17;;;;;;;3.27;2.40;;;;;;;;;;5072128;28;20515;-61
2021/04/11 12:07:56;;;;;;;2.43;1.97;;;;;;;;;;5091037;28;20148;-62
2021/04/11 12:10:30;;;;;;;4.33;2.33;;;;;;;;;;5088902;28;20164;-61
2021/04/11 12:13:15;;;;;;;2.50;2.10;;;;;;;;;;5072445;28;20217;-61
2021/04/11 12:15:42;;;;;;;2.90;2.20;;;;;;;;;;5088916;28;20273;-61
2021/04/11 12:18:11;;;;;;;2.63;1.97;;;;;;;;;;5090351;28;20164;-61
2021/04/11 12:20:49;;;;;;;3.90;2.27;;;;;;;;;;5089488;28;20180;-61
2021/04/11 12:23:18;;;;;;;1.97;1.80;;;;;;;;;;5071055;28;20650;-61
2021/04/11 12:25:44;;;;;;;2.40;1.80;;;;;;;;;;5090516;28;20176;-61
2021/04/11 12:28:27;;;;;;;3.10;2.23;;;;;;;;;;5093675;28;20176;-61
2021/04/11 12:30:54;;;;;;;2.63;1.93;;;;;;;;;;5051710;28;20700;-62
2021/04/11 12:33:26;;;;;;;2.07;1.87;;;;;;;;;;5070416;28;20192;-61
2021/04/11 12:35:52;;;;;;;1.87;1.77;;;;;;;;;;5090117;28;20224;-61
2021/04/11 12:38:30;;;;;;;2.73;1.90;;;;;;;;;;5084482;28;20181;-61
2021/04/11 12:41:12;;;;;;;2.90;2.23;;;;;;;;;;5081357;28;20167;-62
2021/04/11 12:43:45;;;;;;;5.27;2.47;;;;;;;;;;5089497;28;20184;-62
2021/04/11 12:46:30;;;;;;;3.03;2.27;;;;;;;;;;5072256;28;20652;-61
2021/04/11 12:49:05;;;;;;;3.47;2.20;;;;;;;;;;5081405;28;20179;-60
2021/04/11 12:51:34;;;;;;;1.73;1.63;;;;;;;;;;5084027;28;20185;-60
2021/04/11 12:54:09;;;;;;;2.97;2.00;;;;;;;;;;5087980;28;20199;-62
2021/04/11 12:56:41;;;;;;;1.90;1.73;;;;;;;;;;5065104;28;20270;-61
2021/04/11 12:59:18;;;;;;;4.37;2.53;;;;;;;;;;5081247;28;20307;-61
2021/04/11 13:01:46;;;;;;;1.60;1.50;;;;;;;;;;5061797;28;20179;-60
2021/04/11 13:04:16;;;;;;;2.53;1.90;;;;;;;;;;5075019;28;20176;-60
2021/04/11 13:06:42;;;;;;;3.63;2.07;;;;;;;;;;5071686;28;20204;-61
2021/04/11 13:09:26;;;;;;;2.87;2.17;;;;;;;;;;5090028;28;20186;-60
2021/04/11 13:12:11;;;;;;;2.27;1.83;;;;;;;;;;5082754;28;20275;-62
2021/04/11 13:14:54;;;;;;;2.10;1.90;;;;;;;;;;5064138;28;20199;-60
2021/04/11 13:17:24;;;;;;;2.50;2.13;;;;;;;;;;5080934;28;20172;-63
2021/04/11 13:20:02;;;;;;;3.17;2.20;;;;;;;;;;5080869;28;20191;-61
2021/04/11 13:22:33;;;;;;;2.77;2.20;;;;;;;;;;5064943;28;20171;-61
2021/04/11 13:25:02;;;;;;;2.30;2.10;;;;;;;;;;5086735;28;20182;-61
2021/04/11 13:27:38;;;;;;;2.73;2.17;;;;;;;;;;5090002;28;20272;-61
2021/04/11 13:30:04;;;;;;;2.53;2.23;;;;;;;;;;5070804;28;20592;-61
2021/04/11 13:32:35;;;;;;;3.43;2.30;;;;;;;;;;5088141;28;20187;-63
2021/04/11 13:35:37;;;;;;;4.83;2.20;;;;;;;;;;5097057;28;20207;-61
2021/04/11 13:38:06;;;;;;;2.97;2.73;;;;;;;;;;4991676;28;20187;-61
2021/04/11 13:40:34;;;;;;;5.07;2.57;;;;;;;;;;5058651;28;20200;-61
2021/04/11 13:43:00;;;;;;;5.00;2.57;;;;;;;;;;5073448;28;20525;-61
2021/04/11 13:45:29;;;;;;;3.13;2.40;;;;;;;;;;5077722;28;20195;-60
2021/04/11 13:48:01;;;;;;;4.10;2.70;;;;;;;;;;5055427;28;20176;-60
2021/04/11 13:50:33;;;;;;;3.50;2.13;;;;;;;;;;5090683;28;20195;-60
2021/04/11 13:53:02;;;;;;;3.37;2.27;;;;;;;;;;5091900;28;20259;-60
2021/04/11 13:55:46;;;;;;;2.63;2.37;;;;;;;;;;5092684;28;20235;-60
2021/04/11 13:58:36;;;;;;;4.93;2.53;;;;;;;;;;5093069;28;20168;-60
2021/04/11 14:01:17;;;;;;;3.40;2.17;;;;;;;;;;5054602;28;20577;-60
2021/04/11 14:04:00;;;;;;;4.40;2.93;;;;;;;;;;5063308;28;20271;-61
2021/04/11 14:06:37;;;;;;;5.03;2.70;;;;;;;;;;5092821;28;20166;-61
2021/04/11 14:09:10;;;;;;;3.57;2.60;;;;;;;;;;5092861;28;20187;-61
2021/04/11 14:11:36;;;;;;;3.80;2.67;;;;;;;;;;5093150;28;20174;-62
2021/04/11 14:14:02;;;;;;;3.70;2.50;;;;;;;;;;5093537;28;20252;-60
2021/04/11 14:16:39;;;;;;;4.87;2.80;;;;;;;;;;5076174;28;20176;-60
2021/04/11 14:19:08;;;;;;;3.60;2.57;;;;;;;;;;5086798;28;20183;-61
2021/04/11 14:21:37;;;;;;;4.20;2.67;;;;;;;;;;5093433;28;20172;-60
2021/04/11 14:24:03;;;;;;;2.73;2.50;;;;;;;;;;5075536;28;20589;-60
2021/04/11 14:26:39;;;;;;;3.10;2.07;;;;;;;;;;5093373;28;20233;-63
2021/04/11 14:29:19;;;;;;;3.57;2.27;;;;;;;;;;5085918;28;20856;-60
2021/04/11 14:31:54;;;;;;;3.33;2.30;;;;;;;;;;5071221;28;20241;-60
2021/04/11 14:34:24;;;;;;;3.40;2.03;;;;;;;;;;5091894;28;20249;-60
2021/04/11 14:37:05;;;;;;;2.93;2.07;;;;;;;;;;5084523;28;20184;-60
2021/04/11 14:39:42;;;;;;;3.80;2.17;;;;;;;;;;5088875;28;20625;-61
2021/04/11 14:42:14;;;;;;;2.53;2.13;;;;;;;;;;5091076;28;20165;-61
2021/04/11 14:44:50;;;;;;;4.23;2.03;;;;;;;;;;5079919;28;20168;-61
2021/04/11 14:47:37;;;;;;;1.87;1.70;;;;;;;;;;5088247;28;20694;-60
2021/04/11 14:50:08;;;;;;;2.00;1.60;;;;;;;;;;5084391;28;22024;-61
2021/04/11 14:53:04;;;;;;;2.93;1.60;;;;;;;;;;5063548;28;20192;-60
2021/04/11 14:55:30;;;;;;;1.33;1.23;;;;;;;;;;5063720;28;20223;-61
2021/04/11 14:57:58;;;;;;;2.60;1.47;;;;;;;;;;5065419;28;20188;-60
2021/04/11 15:00:28;;;;;;;1.60;1.50;;;;;;;;;;5087675;28;20183;-61
2021/04/11 15:03:01;;;;;;;2.50;1.60;;;;;;;;;;5089834;28;20583;-60
2021/04/11 15:05:27;;;;;;;2.00;1.47;;;;;;;;;;5067411;28;20227;-61
2021/04/11 15:08:13;;;;;;;2.40;1.43;;;;;;;;;;5082746;28;20196;-60
2021/04/11 15:10:39;;;;;;;1.33;1.23;;;;;;;;;;5083536;28;20197;-61
2021/04/11 15:13:29;;;;;;;1.90;1.40;;;;;;;;;;5084150;28;20635;-60
2021/04/11 15:16:00;;;;;;;2.73;1.53;;;;;;;;;;5067994;28;20204;-60
2021/04/11 15:18:30;;;;;;;3.50;1.53;;;;;;;;;;5092269;28;20247;-60
2021/04/11 15:20:56;;;;;;;1.33;1.13;;;;;;;;;;5085884;28;20176;-60